Garden City, Washington
Current Conditions -  °F | °C
As of 6:42 AM on Tuesday 21 Oct 2014 (Local Time) from KSHN Reporting Station
Broken Clouds Broken Clouds  
Wind Chill: 53°   Ceiling: 1700
Heat Index: 53°   Visibility: 10mi
Dew Point: 51°   Wind: 6mph
Humidity: 93%   Direction: 170°S
Pressure: 29.83"   Gusts: NA
Location:  47.0427°N, 123.269°W
Report Text: KSHN 211342Z AUTO 17005KT 10SM BKN017 BKN024 BKN042 12/11 A2983 RMK AO2 RAE16 P0001 T01170106 TSNO
Loading
Personal Weather Stations






























Interactive Weather Map
Tropical Storm Tracking
New forecast layout! Learn more

10-Day Weather Forecast

Advertisements
Track Severe Weather on mobile